Time;durP1;ratioP1;P1;durP2;ratioP2;P2;SDS_P1;SDS_P2;PMS_P1;PMS_P2;Temp;Humidity;BMP_temperature;BMP_pressure;BME280_temperature;BME280_humidity;BME280_pressure;Samples;Min_cycle;Max_cycle;Signal;HPM_P1;HPM_P2
2023/01/11 00:04:54;;;;;;;0.40;0.40;;;;;;;;;;10320119;28;20220;-87
2023/01/11 00:09:55;;;;;;;2.08;0.55;;;;;;;;;;10322767;28;20315;-86
2023/01/11 00:14:56;;;;;;;0.65;0.38;;;;;;;;;;10311066;28;20263;-84
2023/01/11 00:19:57;;;;;;;4.82;0.50;;;;;;;;;;10322977;28;20769;-86
2023/01/11 00:24:58;;;;;;;1.60;0.35;;;;;;;;;;10326658;28;20221;-82
2023/01/11 00:29:59;;;;;;;0.40;0.40;;;;;;;;;;10319813;28;20275;-87
2023/01/11 00:35:02;;;;;;;0.93;0.70;;;;;;;;;;10306090;28;20216;-80
2023/01/11 00:40:03;;;;;;;4.45;0.40;;;;;;;;;;10298988;28;20216;-83
2023/01/11 00:50:25;;;;;;;6.53;0.60;;;;;;;;;;10314209;28;20232;-84
2023/01/11 00:55:26;;;;;;;3.88;0.70;;;;;;;;;;10316197;28;20216;-80
2023/01/11 01:00:27;;;;;;;2.67;0.50;;;;;;;;;;10321836;28;20224;-85
2023/01/11 01:05:28;;;;;;;2.28;0.93;;;;;;;;;;10320437;28;20226;-85
2023/01/11 01:10:30;;;;;;;0.40;0.40;;;;;;;;;;10319469;28;20225;-82
2023/01/11 01:15:31;;;;;;;5.68;0.60;;;;;;;;;;10329276;28;20303;-86
2023/01/11 01:20:33;;;;;;;2.95;0.50;;;;;;;;;;10300919;28;20235;-87
2023/01/11 01:25:36;;;;;;;2.75;0.40;;;;;;;;;;10322127;28;20232;-86
2023/01/11 01:30:39;;;;;;;3.17;0.50;;;;;;;;;;10319967;28;20275;-87
2023/01/11 01:35:40;;;;;;;4.45;0.43;;;;;;;;;;10321761;28;20233;-83
2023/01/11 01:40:41;;;;;;;1.13;0.40;;;;;;;;;;10322059;28;20271;-84
2023/01/11 01:45:43;;;;;;;1.15;0.40;;;;;;;;;;10319372;28;20217;-85
2023/01/11 01:50:48;;;;;;;3.63;0.50;;;;;;;;;;10321928;28;20255;-86
2023/01/11 01:55:52;;;;;;;1.20;0.77;;;;;;;;;;10320300;28;20219;-84
2023/01/11 02:00:53;;;;;;;1.10;0.40;;;;;;;;;;10321720;28;20214;-86
2023/01/11 02:05:55;;;;;;;5.05;0.52;;;;;;;;;;10322717;28;20578;-88
2023/01/11 02:10:56;;;;;;;0.47;0.40;;;;;;;;;;10323517;28;20284;-88
2023/01/11 02:16:06;;;;;;;1.08;0.50;;;;;;;;;;10319605;28;20270;-88
2023/01/11 02:21:28;;;;;;;5.38;0.60;;;;;;;;;;10323226;28;20217;-86
2023/01/11 02:26:48;;;;;;;2.10;0.50;;;;;;;;;;10309683;28;20240;-89
2023/01/11 02:31:52;;;;;;;0.80;0.57;;;;;;;;;;10324824;28;20220;-87
2023/01/11 02:37:16;;;;;;;2.05;0.60;;;;;;;;;;10322759;28;20295;-86
2023/01/11 02:47:52;;;;;;;0.65;0.38;;;;;;;;;;10305915;28;20220;-89
2023/01/11 02:53:09;;;;;;;0.30;0.30;;;;;;;;;;10319371;28;20217;-81
2023/01/11 02:58:11;;;;;;;2.08;0.40;;;;;;;;;;10318266;28;20220;-88
2023/01/11 03:03:18;;;;;;;1.15;0.50;;;;;;;;;;10325426;28;20256;-84
2023/01/11 03:08:24;;;;;;;2.08;0.50;;;;;;;;;;10318171;28;20247;-88
2023/01/11 03:13:25;;;;;;;0.82;0.68;;;;;;;;;;10310074;28;20217;-88
2023/01/11 03:18:37;;;;;;;2.17;0.75;;;;;;;;;;10323574;28;20217;-87
2023/01/11 03:23:47;;;;;;;2.13;0.55;;;;;;;;;;10319180;28;20225;-76
2023/01/11 03:29:07;;;;;;;3.45;0.55;;;;;;;;;;10325375;28;20220;-86
2023/01/11 03:34:27;;;;;;;3.22;0.52;;;;;;;;;;10321350;28;20216;-91
2023/01/11 03:39:31;;;;;;;0.47;0.47;;;;;;;;;;10323275;28;20289;-83
2023/01/11 03:44:34;;;;;;;1.15;0.52;;;;;;;;;;10312977;28;20789;-78
2023/01/11 03:49:41;;;;;;;1.65;0.57;;;;;;;;;;10331536;28;20738;-88
2023/01/11 03:54:44;;;;;;;2.92;0.60;;;;;;;;;;10310468;28;20209;-88
2023/01/11 03:59:45;;;;;;;0.45;0.45;;;;;;;;;;10333708;28;20219;-90
2023/01/11 04:04:46;;;;;;;1.30;0.25;;;;;;;;;;10326159;28;20237;-89
2023/01/11 04:09:47;;;;;;;0.40;0.40;;;;;;;;;;10329273;28;20220;-88
2023/01/11 04:14:48;;;;;;;2.63;0.82;;;;;;;;;;10330581;28;20217;-87
2023/01/11 04:19:49;;;;;;;0.50;0.50;;;;;;;;;;10330875;28;20245;-86
2023/01/11 04:24:50;;;;;;;0.65;0.40;;;;;;;;;;10326225;28;20212;-90
2023/01/11 04:29:51;;;;;;;3.13;0.40;;;;;;;;;;10329955;28;20244;-91
2023/01/11 04:34:52;;;;;;;0.30;0.30;;;;;;;;;;10331359;28;20288;-90
2023/01/11 04:39:53;;;;;;;10.80;0.45;;;;;;;;;;10311017;28;20220;-88
2023/01/11 04:44:54;;;;;;;2.08;0.65;;;;;;;;;;10313377;28;20217;-86
2023/01/11 04:49:55;;;;;;;1.50;0.40;;;;;;;;;;10331513;28;20210;-91
2023/01/11 04:54:56;;;;;;;0.43;0.43;;;;;;;;;;10327825;28;20220;-89
2023/01/11 04:59:57;;;;;;;0.47;0.47;;;;;;;;;;10321338;28;20213;-80
2023/01/11 05:04:58;;;;;;;0.88;0.57;;;;;;;;;;10312544;28;20213;-91
2023/01/11 05:09:59;;;;;;;0.40;0.40;;;;;;;;;;10330402;28;20216;-91
2023/01/11 05:15:00;;;;;;;1.65;0.25;;;;;;;;;;10330111;28;20268;-87
2023/01/11 05:20:03;;;;;;;0.45;0.20;;;;;;;;;;10326857;28;20282;-86
2023/01/11 05:25:04;;;;;;;0.40;0.40;;;;;;;;;;10317010;28;20269;-90
2023/01/11 05:30:06;;;;;;;2.47;0.52;;;;;;;;;;10332494;28;20276;-91
2023/01/11 05:35:09;;;;;;;1.35;0.30;;;;;;;;;;10316438;28;20177;-88
2023/01/11 05:40:11;;;;;;;0.73;0.30;;;;;;;;;;10305706;28;20249;-84
2023/01/11 05:45:27;;;;;;;0.50;0.43;;;;;;;;;;10312893;28;20239;-91
2023/01/11 05:50:29;;;;;;;0.30;0.30;;;;;;;;;;10311601;28;20451;-90
2023/01/11 05:55:30;;;;;;;1.73;0.60;;;;;;;;;;10325068;28;20254;-90
2023/01/11 06:00:31;;;;;;;0.45;0.40;;;;;;;;;;10320472;28;20228;-90
2023/01/11 06:05:33;;;;;;;1.10;0.45;;;;;;;;;;10325154;28;20217;-91
2023/01/11 06:10:34;;;;;;;0.50;0.50;;;;;;;;;;10306684;28;20225;-90
2023/01/11 06:15:36;;;;;;;0.50;0.50;;;;;;;;;;10315721;28;20212;-85
2023/01/11 06:20:37;;;;;;;0.55;0.55;;;;;;;;;;10297994;28;20263;-90
2023/01/11 06:25:38;;;;;;;2.85;0.50;;;;;;;;;;10303182;28;20213;-79
2023/01/11 06:30:39;;;;;;;3.70;0.50;;;;;;;;;;10295721;28;20280;-91
2023/01/11 06:35:42;;;;;;;0.60;0.52;;;;;;;;;;10301018;28;20228;-86
2023/01/11 06:40:43;;;;;;;0.60;0.60;;;;;;;;;;10320717;28;20213;-85
2023/01/11 06:45:44;;;;;;;2.40;0.75;;;;;;;;;;10316869;28;20218;-88
2023/01/11 06:50:55;;;;;;;0.57;0.50;;;;;;;;;;10310638;28;20440;-86
2023/01/11 06:55:57;;;;;;;0.73;0.60;;;;;;;;;;10306141;28;20759;-90
2023/01/11 07:00:58;;;;;;;0.50;0.50;;;;;;;;;;10315493;28;20223;-85
2023/01/11 07:06:00;;;;;;;0.63;0.63;;;;;;;;;;10307913;28;20231;-86
2023/01/11 07:11:01;;;;;;;0.50;0.50;;;;;;;;;;10313429;28;20236;-84
2023/01/11 07:16:03;;;;;;;1.13;0.82;;;;;;;;;;10300662;28;20663;-87
2023/01/11 07:21:04;;;;;;;0.40;0.40;;;;;;;;;;10313123;28;20233;-88
2023/01/11 07:26:05;;;;;;;0.60;0.43;;;;;;;;;;10314728;28;20854;-88
2023/01/11 07:31:06;;;;;;;0.40;0.40;;;;;;;;;;10317033;28;20243;-84
2023/01/11 07:36:07;;;;;;;1.35;0.45;;;;;;;;;;10307023;28;20231;-84
2023/01/11 07:46:28;;;;;;;0.30;0.30;;;;;;;;;;10295264;28;20220;-82
2023/01/11 07:51:29;;;;;;;0.80;0.30;;;;;;;;;;10312295;28;20229;-84
2023/01/11 07:56:30;;;;;;;0.35;0.35;;;;;;;;;;10313566;28;20217;-88
2023/01/11 08:01:31;;;;;;;0.30;0.30;;;;;;;;;;10313051;28;20771;-88
2023/01/11 08:06:32;;;;;;;0.30;0.30;;;;;;;;;;10313886;28;20310;-83
2023/01/11 08:16:53;;;;;;;0.30;0.30;;;;;;;;;;10310038;28;20213;-84
2023/01/11 08:21:54;;;;;;;0.40;0.40;;;;;;;;;;10304860;28;20224;-78
2023/01/11 08:26:55;;;;;;;0.60;0.30;;;;;;;;;;10293876;28;20303;-78
2023/01/11 08:31:58;;;;;;;0.55;0.20;;;;;;;;;;10309694;28;20220;-84
2023/01/11 08:37:00;;;;;;;0.20;0.20;;;;;;;;;;10293863;28;20217;-83
2023/01/11 08:42:02;;;;;;;0.10;0.10;;;;;;;;;;10312886;28;20475;-85
2023/01/11 08:47:03;;;;;;;0.10;0.10;;;;;;;;;;10314446;28;20220;-86
2023/01/11 08:52:04;;;;;;;5.65;0.30;;;;;;;;;;10296015;28;20224;-87
2023/01/11 08:57:05;;;;;;;0.20;0.10;;;;;;;;;;10302950;28;20236;-85
2023/01/11 09:02:06;;;;;;;0.20;0.20;;;;;;;;;;10308759;28;20220;-86
2023/01/11 09:07:07;;;;;;;0.30;0.30;;;;;;;;;;10313371;28;20216;-85
2023/01/11 09:12:08;;;;;;;0.40;0.40;;;;;;;;;;10309425;28;20633;-83
2023/01/11 09:17:09;;;;;;;0.20;0.20;;;;;;;;;;10301067;28;20227;-82
2023/01/11 09:22:10;;;;;;;1.08;0.30;;;;;;;;;;10301365;28;20650;-82
2023/01/11 09:27:11;;;;;;;0.13;0.13;;;;;;;;;;10307548;28;20296;-84
2023/01/11 09:32:12;;;;;;;0.65;0.50;;;;;;;;;;10307715;28;20272;-84
2023/01/11 09:37:13;;;;;;;0.45;0.20;;;;;;;;;;10300414;28;20221;-83
2023/01/11 09:42:31;;;;;;;0.20;0.20;;;;;;;;;;10291693;28;20221;-83
2023/01/11 09:47:51;;;;;;;0.32;0.32;;;;;;;;;;10300072;28;20287;-83
2023/01/11 09:53:02;;;;;;;0.38;0.38;;;;;;;;;;10295618;28;20639;-82
2023/01/11 09:58:08;;;;;;;0.55;0.40;;;;;;;;;;10281084;28;20213;-83
2023/01/11 10:03:09;;;;;;;0.22;0.22;;;;;;;;;;10301338;28;20698;-81
2023/01/11 10:08:16;;;;;;;0.20;0.20;;;;;;;;;;10303019;28;20222;-83
2023/01/11 10:13:21;;;;;;;0.20;0.20;;;;;;;;;;10302125;28;20316;-82
2023/01/11 10:18:41;;;;;;;0.30;0.30;;;;;;;;;;10291893;28;20228;-80
2023/01/11 10:24:03;;;;;;;0.20;0.20;;;;;;;;;;10299005;28;20287;-81
2023/01/11 10:34:41;;;;;;;3.50;0.20;;;;;;;;;;10295584;28;20217;-80
2023/01/11 10:45:11;;;;;;;0.30;0.30;;;;;;;;;;10296295;28;20230;-82
2023/01/11 10:50:12;;;;;;;0.30;0.30;;;;;;;;;;10298849;28;20232;-82
2023/01/11 10:55:15;;;;;;;5.90;0.43;;;;;;;;;;10303678;28;20177;-81
2023/01/11 11:00:24;;;;;;;0.10;0.10;;;;;;;;;;10298851;28;20182;-84
2023/01/11 11:05:45;;;;;;;0.20;0.20;;;;;;;;;;10293561;28;20248;-84
2023/01/11 11:11:00;;;;;;;0.55;0.20;;;;;;;;;;10306635;28;20335;-82
2023/01/11 11:16:20;;;;;;;0.93;0.30;;;;;;;;;;10300304;28;20233;-83
2023/01/11 11:21:23;;;;;;;0.40;0.40;;;;;;;;;;10261066;28;20865;-81
2023/01/11 11:26:28;;;;;;;0.30;0.30;;;;;;;;;;10262595;28;20329;-85
2023/01/11 11:31:30;;;;;;;0.50;0.30;;;;;;;;;;10268343;28;20222;-82
2023/01/11 11:36:40;;;;;;;0.30;0.30;;;;;;;;;;10263821;28;20228;-83
2023/01/11 11:41:47;;;;;;;0.25;0.25;;;;;;;;;;10264199;28;20320;-83
2023/01/11 11:46:56;;;;;;;0.28;0.25;;;;;;;;;;10251658;28;20241;-80
2023/01/11 11:51:58;;;;;;;0.30;0.20;;;;;;;;;;10232451;28;20369;-83
2023/01/11 11:57:14;;;;;;;0.20;0.20;;;;;;;;;;10243644;28;20921;-80
2023/01/11 12:02:21;;;;;;;0.47;0.17;;;;;;;;;;10241037;28;20784;-79
2023/01/11 12:07:23;;;;;;;0.13;0.13;;;;;;;;;;10259819;28;20710;-80
2023/01/11 12:12:24;;;;;;;0.10;0.10;;;;;;;;;;10252159;28;20633;-78
2023/01/11 12:17:26;;;;;;;0.10;0.10;;;;;;;;;;10244171;28;20209;-80
2023/01/11 12:22:27;;;;;;;0.30;0.30;;;;;;;;;;10251384;28;20287;-79
2023/01/11 12:27:47;;;;;;;0.20;0.20;;;;;;;;;;10255622;28;20242;-80
2023/01/11 12:33:18;;;;;;;0.10;0.10;;;;;;;;;;10261853;28;20209;-79
2023/01/11 12:38:29;;;;;;;0.10;0.10;;;;;;;;;;10208082;28;20225;-80
2023/01/11 12:43:40;;;;;;;0.32;0.10;;;;;;;;;;10250651;28;20217;-79
2023/01/11 12:48:48;;;;;;;0.17;0.17;;;;;;;;;;10254775;28;20897;-80
2023/01/11 12:53:54;;;;;;;0.63;0.35;;;;;;;;;;10249199;28;20717;-83
2023/01/11 12:59:02;;;;;;;0.50;0.50;;;;;;;;;;10265392;28;20213;-83
2023/01/11 13:04:09;;;;;;;0.65;0.40;;;;;;;;;;10238855;28;20677;-82
2023/01/11 13:09:27;;;;;;;1.38;0.40;;;;;;;;;;10237232;28;20501;-81
2023/01/11 13:14:41;;;;;;;0.30;0.30;;;;;;;;;;10236459;28;20970;-81
2023/01/11 13:19:42;;;;;;;0.10;0.10;;;;;;;;;;10253938;28;20233;-80
2023/01/11 13:24:45;;;;;;;0.10;0.10;;;;;;;;;;10292901;28;20248;-80
2023/01/11 13:29:47;;;;;;;0.15;0.15;;;;;;;;;;10296217;28;20209;-82
2023/01/11 13:34:54;;;;;;;1.45;0.20;;;;;;;;;;10276338;28;20213;-82
2023/01/11 13:40:09;;;;;;;0.15;0.15;;;;;;;;;;10287437;28;20263;-82
2023/01/11 13:45:17;;;;;;;0.20;0.20;;;;;;;;;;10289082;28;20215;-81
2023/01/11 13:50:20;;;;;;;0.10;0.10;;;;;;;;;;10285771;28;20244;-83
2023/01/11 13:55:25;;;;;;;0.28;0.28;;;;;;;;;;10279600;28;20209;-81
2023/01/11 14:00:30;;;;;;;2.95;2.70;;;;;;;;;;10270475;28;20304;-82
2023/01/11 14:05:39;;;;;;;0.50;0.50;;;;;;;;;;10286437;28;20217;-84
2023/01/11 14:10:53;;;;;;;0.30;0.30;;;;;;;;;;10289034;28;20224;-79
2023/01/11 14:15:58;;;;;;;0.50;0.50;;;;;;;;;;10283957;28;20218;-79
2023/01/11 14:20:59;;;;;;;0.10;0.10;;;;;;;;;;10288243;28;21177;-82
2023/01/11 14:26:01;;;;;;;0.20;0.20;;;;;;;;;;10286622;28;20209;-82
2023/01/11 14:31:04;;;;;;;1.33;0.30;;;;;;;;;;10273269;28;20225;-83
2023/01/11 14:36:13;;;;;;;0.40;0.40;;;;;;;;;;10288736;28;20239;-82
2023/01/11 14:41:22;;;;;;;0.20;0.20;;;;;;;;;;10288568;28;20227;-83
2023/01/11 14:46:35;;;;;;;0.30;0.30;;;;;;;;;;10288296;28;20228;-82
2023/01/11 14:51:39;;;;;;;1.10;0.50;;;;;;;;;;10290912;28;20654;-83
2023/01/11 14:56:43;;;;;;;0.47;0.47;;;;;;;;;;10276973;28;20292;-78
2023/01/11 15:02:02;;;;;;;0.60;0.45;;;;;;;;;;10290663;28;20213;-84
2023/01/11 15:07:32;;;;;;;1.25;1.25;;;;;;;;;;10278933;28;20351;-87
2023/01/11 15:12:35;;;;;;;0.90;0.70;;;;;;;;;;10299002;28;20213;-79
2023/01/11 15:22:57;;;;;;;1.45;0.80;;;;;;;;;;10309938;28;20319;-86
2023/01/11 15:28:00;;;;;;;0.55;0.55;;;;;;;;;;10298736;28;20658;-80
2023/01/11 15:33:16;;;;;;;0.65;0.65;;;;;;;;;;10284895;28;20274;-84
2023/01/11 15:38:17;;;;;;;1.55;0.73;;;;;;;;;;10288037;28;20884;-80
2023/01/11 15:43:37;;;;;;;0.60;0.60;;;;;;;;;;10292262;28;20220;-82
2023/01/11 15:48:38;;;;;;;1.70;0.57;;;;;;;;;;10289341;28;20236;-84
2023/01/11 15:53:54;;;;;;;0.80;0.80;;;;;;;;;;10310869;28;20220;-84
2023/01/11 15:59:06;;;;;;;0.57;0.57;;;;;;;;;;10295950;28;20239;-84
2023/01/11 16:04:21;;;;;;;0.70;0.70;;;;;;;;;;10303001;28;20327;-83
2023/01/11 16:09:41;;;;;;;1.00;1.00;;;;;;;;;;10295820;28;20221;-84
2023/01/11 16:14:55;;;;;;;0.63;0.63;;;;;;;;;;10307596;28;20225;-82
2023/01/11 16:19:56;;;;;;;0.65;0.65;;;;;;;;;;10288381;28;20230;-80
2023/01/11 16:25:00;;;;;;;0.63;0.60;;;;;;;;;;10305507;28;20253;-82
2023/01/11 16:30:01;;;;;;;1.30;0.82;;;;;;;;;;10310367;28;20648;-83
2023/01/11 16:35:15;;;;;;;1.35;0.63;;;;;;;;;;10304601;28;20213;-81
2023/01/11 16:40:31;;;;;;;1.02;1.02;;;;;;;;;;10308296;28;20252;-82
2023/01/11 16:45:40;;;;;;;0.95;0.85;;;;;;;;;;10292307;28;20595;-81
2023/01/11 16:50:47;;;;;;;1.02;1.02;;;;;;;;;;10310033;28;20256;-79
2023/01/11 16:55:56;;;;;;;1.58;1.15;;;;;;;;;;10307198;28;20224;-82
2023/01/11 17:01:01;;;;;;;2.92;1.17;;;;;;;;;;10310540;28;20794;-81
2023/01/11 17:06:14;;;;;;;1.90;1.23;;;;;;;;;;10304442;28;20220;-80
2023/01/11 17:11:15;;;;;;;3.35;0.77;;;;;;;;;;10309329;28;20292;-83
2023/01/11 17:16:16;;;;;;;1.35;0.93;;;;;;;;;;10304465;28;20217;-81
2023/01/11 17:21:18;;;;;;;1.33;0.70;;;;;;;;;;10309913;28;20236;-82
2023/01/11 17:26:25;;;;;;;4.47;1.42;;;;;;;;;;10307720;28;20636;-84
2023/01/11 17:31:29;;;;;;;8.02;1.35;;;;;;;;;;10291931;28;20268;-84
2023/01/11 17:36:31;;;;;;;1.65;1.10;;;;;;;;;;10305928;28;20304;-83
2023/01/11 17:46:52;;;;;;;4.60;1.73;;;;;;;;;;10299221;28;20213;-81
2023/01/11 17:51:53;;;;;;;7.72;2.80;;;;;;;;;;10302103;28;20764;-84
2023/01/11 17:57:00;;;;;;;3.47;1.70;;;;;;;;;;10289327;28;20232;-82
2023/01/11 18:02:12;;;;;;;2.88;1.13;;;;;;;;;;10301566;28;20221;-81
2023/01/11 18:07:17;;;;;;;2.97;1.20;;;;;;;;;;10297815;28;20228;-82
2023/01/11 18:12:21;;;;;;;3.72;3.40;;;;;;;;;;10276430;28;20229;-79
2023/01/11 18:17:41;;;;;;;4.05;2.30;;;;;;;;;;10287843;28;20257;-79
2023/01/11 18:22:55;;;;;;;1.90;1.80;;;;;;;;;;10283708;28;20224;-76
2023/01/11 18:28:11;;;;;;;4.38;1.73;;;;;;;;;;10294641;28;20304;-75
2023/01/11 18:33:15;;;;;;;4.70;2.45;;;;;;;;;;10293795;28;20213;-76
2023/01/11 18:38:21;;;;;;;4.65;2.30;;;;;;;;;;10293459;28;20296;-78
2023/01/11 18:43:26;;;;;;;5.93;1.90;;;;;;;;;;10291275;28;21189;-80
2023/01/11 18:48:27;;;;;;;3.55;1.85;;;;;;;;;;10291040;28;20227;-78
2023/01/11 18:53:29;;;;;;;5.38;2.83;;;;;;;;;;10285046;28;20658;-78
2023/01/11 18:58:30;;;;;;;7.65;2.30;;;;;;;;;;10285747;28;20630;-78
2023/01/11 19:03:31;;;;;;;2.83;2.22;;;;;;;;;;10287542;28;20213;-78
2023/01/11 19:08:32;;;;;;;7.05;2.58;;;;;;;;;;10284312;28;20744;-78
2023/01/11 19:13:33;;;;;;;4.63;2.95;;;;;;;;;;10280997;28;20212;-80
2023/01/11 19:18:35;;;;;;;3.17;2.88;;;;;;;;;;10292520;28;20220;-80
2023/01/11 19:23:36;;;;;;;4.97;3.92;;;;;;;;;;10284493;28;20312;-79
2023/01/11 19:28:37;;;;;;;6.97;4.32;;;;;;;;;;10290714;28;20279;-75
2023/01/11 19:33:39;;;;;;;10.30;4.50;;;;;;;;;;10295263;28;20306;-84
2023/01/11 19:38:40;;;;;;;6.72;3.85;;;;;;;;;;10296112;28;20311;-82
2023/01/11 19:43:43;;;;;;;3.38;3.08;;;;;;;;;;10291087;28;20217;-76
2023/01/11 19:48:44;;;;;;;7.22;4.32;;;;;;;;;;10289615;28;20319;-81
2023/01/11 19:53:45;;;;;;;5.47;4.03;;;;;;;;;;10285012;28;20209;-83
2023/01/11 19:58:46;;;;;;;5.70;3.63;;;;;;;;;;10283365;28;20237;-75
2023/01/11 20:03:48;;;;;;;5.60;3.78;;;;;;;;;;10283606;28;20227;-75
2023/01/11 20:08:50;;;;;;;4.72;4.05;;;;;;;;;;10287243;28;20225;-77
2023/01/11 20:13:51;;;;;;;7.88;3.20;;;;;;;;;;10286601;28;20694;-74
2023/01/11 20:18:53;;;;;;;6.07;2.97;;;;;;;;;;10288264;28;20217;-77
2023/01/11 20:23:56;;;;;;;3.53;2.92;;;;;;;;;;10299080;28;20718;-83
2023/01/11 20:28:57;;;;;;;5.38;2.67;;;;;;;;;;10287977;28;20228;-81
2023/01/11 20:33:59;;;;;;;2.83;2.50;;;;;;;;;;10294699;28;20225;-81
2023/01/11 20:39:00;;;;;;;3.58;3.17;;;;;;;;;;10303045;28;21217;-78
2023/01/11 20:44:01;;;;;;;3.15;2.45;;;;;;;;;;10294211;28;20216;-81
2023/01/11 20:49:03;;;;;;;2.83;2.63;;;;;;;;;;10315389;28;20225;-81
2023/01/11 20:54:05;;;;;;;3.83;2.20;;;;;;;;;;10306735;28;20216;-81
2023/01/11 20:59:06;;;;;;;8.20;2.65;;;;;;;;;;10308682;28;20241;-82
2023/01/11 21:04:08;;;;;;;3.33;2.58;;;;;;;;;;10303911;28;20213;-81
2023/01/11 21:09:10;;;;;;;4.35;2.95;;;;;;;;;;10308160;28;20216;-82
2023/01/11 21:14:11;;;;;;;4.88;2.35;;;;;;;;;;10311448;28;20809;-81
2023/01/11 21:19:13;;;;;;;4.15;2.40;;;;;;;;;;10303798;28;20292;-82
2023/01/11 21:24:15;;;;;;;5.28;1.98;;;;;;;;;;10301561;28;20233;-82
2023/01/11 21:29:16;;;;;;;2.90;2.05;;;;;;;;;;10300099;28;20654;-80
2023/01/11 21:34:17;;;;;;;6.35;2.10;;;;;;;;;;10307247;28;20221;-81
2023/01/11 21:39:18;;;;;;;2.70;2.15;;;;;;;;;;10305008;28;20220;-82
2023/01/11 21:44:20;;;;;;;3.30;2.35;;;;;;;;;;10282052;28;20216;-82
2023/01/11 21:49:23;;;;;;;5.55;1.63;;;;;;;;;;10303966;28;20220;-81
2023/01/11 21:54:24;;;;;;;1.90;1.65;;;;;;;;;;10304252;28;20220;-82
2023/01/11 21:59:25;;;;;;;4.85;2.20;;;;;;;;;;10303819;28;20224;-82
2023/01/11 22:04:26;;;;;;;3.78;1.63;;;;;;;;;;10308379;28;20217;-82
2023/01/11 22:09:27;;;;;;;5.45;1.90;;;;;;;;;;10304800;28;20288;-83
2023/01/11 22:14:29;;;;;;;3.83;1.88;;;;;;;;;;10300371;28;20590;-83
2023/01/11 22:19:30;;;;;;;2.05;1.60;;;;;;;;;;10305822;28;20675;-83
2023/01/11 22:24:31;;;;;;;4.63;1.42;;;;;;;;;;10302082;28;20229;-82
2023/01/11 22:29:32;;;;;;;2.40;1.20;;;;;;;;;;10297322;28;20286;-84
2023/01/11 22:34:34;;;;;;;3.13;2.15;;;;;;;;;;10300042;28;20724;-80
2023/01/11 22:39:39;;;;;;;2.63;1.67;;;;;;;;;;10297851;28;20771;-81
2023/01/11 22:44:40;;;;;;;6.72;1.67;;;;;;;;;;10296840;28;20225;-81
2023/01/11 22:49:41;;;;;;;4.90;2.40;;;;;;;;;;10301103;28;20225;-81
2023/01/11 22:54:42;;;;;;;4.07;1.40;;;;;;;;;;10298323;28;20228;-82
2023/01/11 22:59:44;;;;;;;6.53;1.65;;;;;;;;;;10295573;28;20307;-81
2023/01/11 23:04:45;;;;;;;2.85;1.58;;;;;;;;;;10297290;28;20213;-82
2023/01/11 23:09:46;;;;;;;2.05;1.65;;;;;;;;;;10299600;28;20221;-81
2023/01/11 23:14:47;;;;;;;2.47;1.55;;;;;;;;;;10296813;28;20266;-81
2023/01/11 23:19:48;;;;;;;3.70;1.40;;;;;;;;;;10303695;28;20227;-82
2023/01/11 23:24:49;;;;;;;1.85;0.90;;;;;;;;;;10282136;28;20231;-82
2023/01/11 23:29:50;;;;;;;1.95;1.20;;;;;;;;;;10296289;28;20224;-84
2023/01/11 23:34:51;;;;;;;5.20;1.33;;;;;;;;;;10300623;28;20209;-80
2023/01/11 23:39:52;;;;;;;1.92;0.90;;;;;;;;;;10300800;28;20255;-81
2023/01/11 23:44:54;;;;;;;3.90;1.65;;;;;;;;;;10292339;28;21003;-80
2023/01/11 23:49:56;;;;;;;5.47;1.02;;;;;;;;;;10300897;28;20225;-81
2023/01/11 23:54:57;;;;;;;0.75;0.60;;;;;;;;;;10298468;28;20371;-83
2023/01/11 23:59:58;;;;;;;2.10;0.60;;;;;;;;;;10310139;28;20208;-82
